• Join FlightAware (Why Join?)
  • Login
  • US Flag 
09:40PM EDT


 

Airport Tracker/Info


-or-


 

Live Flight TrackerFlight Track Log ✈ N1944E ✈ 19-Aug-2013 ✈ KCOD - KJAC

Flight Track Log - Related Links

Times and Time Zones

All times are in EDT time to prevent confusion due to time zone crossing. See the N1944E flight status page for this flight to view local times or setup timezone preferences in your user account.

Time Position Orientation Groundspeed Altitude Reporting Facility
EDT Latitude Longitude Course Direction KTS MPH feet Rate Location/Type
08:32AM 44.5367 -109.0297 238° Southwest 161 185 7,800  Level Salt Lake Center
08:33AM 44.5003 -109.0578 209° Southwest 156 180 8,600 840 Climbing Salt Lake Center
08:34AM 44.4772 -109.1061 236° Southwest 151 174 9,500 840 Climbing Salt Lake Center
08:35AM 44.4581 -109.1539 241° Southwest 147 169 10,400 840 Climbing Salt Lake Center
08:36AM 44.4342 -109.1978 233° Southwest 143 165 11,300 780 Climbing Salt Lake Center
08:37AM 44.3722 -109.2780 238° Southwest  Level FlightAware Approximate
08:37AM 44.4100 -109.2400 231° Southwest 141 162 12,000  Level Salt Lake Center
08:38AM 44.3858 -109.2828 232° Southwest 140 161 12,900 840 Climbing Salt Lake Center
08:39AM 44.3617 -109.3253 232° Southwest 140 161 13,700 780 Climbing Salt Lake Center
08:40AM 44.3431 -109.3733 242° Southwest 140 161 14,500 780 Climbing Salt Lake Center
08:41AM 44.3197 -109.4161 233° Southwest 138 159 15,300 720 Climbing Salt Lake Center
08:42AM 44.2947 -109.4594 231° Southwest 141 162 16,000 240 Climbing Salt Lake Center
08:43AM 44.2650 -109.5144 233° Southwest 160 184 15,900  Descending Salt Lake Center
08:44AM 44.2331 -109.5753 234° Southwest 171 197 16,100  Climbing Salt Lake Center
08:45AM 44.2061 -109.6275 234° Southwest 173 199 16,000  Descending Salt Lake Center
08:46AM 44.1775 -109.6792 232° Southwest 175 201 16,100  Climbing Salt Lake Center
08:47AM 44.1453 -109.7397 233° Southwest 174 200 16,000 -300 Descending Salt Lake Center
08:48AM 44.1164 -109.7906 232° Southwest 175 201 15,500 -600 Descending Salt Lake Center
08:49AM 44.0856 -109.8508 235° Southwest 190 219 14,900 -360 Descending Salt Lake Center
08:50AM 44.0514 -109.9144 233° Southwest 187 215 14,800 -60 Descending Salt Lake Center
08:51AM 44.0244 -109.9658 234° Southwest 176 203 14,800  Level Salt Lake Center
08:52AM 43.9983 -110.0142 233° Southwest 168 193 14,800  Level Salt Lake Center
08:53AM 43.9700 -110.0714 235° Southwest 163 188 14,900  Climbing Salt Lake Center
08:54AM 43.9453 -110.1189 234° Southwest 160 184 14,800 -240 Descending Salt Lake Center
08:55AM 43.9186 -110.1667 232° Southwest 162 186 14,500 -600 Descending Salt Lake Center
08:56AM 43.8858 -110.2281 233° Southwest 170 196 13,700 -780 Descending Salt Lake Center
08:57AM 43.8575 -110.2861 236° Southwest 179 206 13,000 -360 Descending Salt Lake Center
08:58AM 43.8294 -110.3394 234° Southwest 182 209 13,000 -540 Level Salt Lake Center
08:59AM 43.8225 -110.4100 262° West 185 213 12,000 -900 Descending Salt Lake Center
09:00AM 43.8189 -110.4647 265° West 181 208 11,200 -660 Descending Salt Lake Center
09:01AM 43.8133 -110.5419 264° West 173 199 10,700 -840 Descending Salt Lake Center
09:02AM 43.8039 -110.6047 258° West 167 192 9,600 -1,020 Descending Salt Lake Center
09:03AM 43.7778 -110.6539 234° Southwest 173 199 8,700 -960 Descending Salt Lake Center
09:04AM 43.7389 -110.6736 200° South 155 178 7,700 -600 Descending Salt Lake Center
09:05AM 43.6978 -110.6944 200° South 157 181 7,500 -180 Descending Salt Lake Center
09:06AM 43.6622 -110.7108 198° South 148 170 7,400 -360 Descending Salt Lake Center
09:07AM 43.6292 -110.7269 199° South 136 157 6,800 -480 Descending Salt Lake Center
09:08AM 43.6033 -110.7403 200° South 129 148 6,500 -300 Descending Salt Lake Center